Airfield :
LOGIN :

Register | Disclaimer

   EN    FR    IT 

 










Legend :    VFR   Marginal VFR   IFR   Intensive IFR   Very Intensive IFR
Visi :
Ceiling :
>= 8 km
>= 3000ft
5 to 8 km
1000 to 3000 ft
1500m to 5 km
500 to 1000 ft
800 to 1500m
200 to 500 ft
< 800m
< 200 ft
Symbols :   Thunderstorms  Fog  Heavy snow  Heavy precipitations  Wind > 20 kt
SIGMETs :     Misc.  Thunderstorms  Icing  Turbulence  Mountain Waves  Volcanic Ashes







- Airport Elevation : 194 ft


EBCV - Chièvres

CURRENT METAR :
  • 111925Z AUTO VRB01KT 9999 BKN046/// 03/02 Q1025 BLU

EXPIRED METARs :
  • 111855Z AUTO VRB01KT 9999 BKN045/// 05/02 Q1025 BLU
  • 111825Z AUTO 20003KT 9999 OVC044/// 04/03 Q1025 BLU
  • 111755Z AUTO 19004KT 9999 BKN045/// 05/03 Q1025 BLU
  • 111749Z AUTO 22005KT 9000 BKN045/// 04/03 Q1025 BLU
  • 111733Z AUTO 20004KT 6000 BKN045/// 04/03 Q1025 WHT
  • 111722Z AUTO 19003KT 9000 BKN044/// 04/03 Q1025 BLU
  • 111708Z AUTO VRB02KT 4700 BKN039/// 04/03 Q1025 GRN
  • 111655Z AUTO VRB02KT 6000 OVC039/// 04/03 Q1025 WHT
  • 111638Z AUTO VRB01KT 6000 OVC041/// 05/04 Q1025 WHT

TAF TAF EBCV
Valid from the 11 at 19:00 until the 12 at 07:00 UTC


111541Z 1119/1207 VRB02KT 7000 BKN045
BECMG 1200/1202 4000 BR
TEMPO 1203/1207 FEW040 2000 BR BY EBWM
No reported NOTAMs for that airfield.



MET'MAP, your aeronautical weather chart ! - Copyright ORBIFLY December 2007 - Disclaimer

ORBIFLY MET'MAP TEAM :

Programming & Development : Alexandra Zaïnal
Concept & Development : Baudouin d'Aumeries
Co-Development & Prog : Marc-Olivier Méhu
Technical & hardware support : Manuel Goepfert

Contact : metmap@orbifly.com




SOURCES & CREDITS :

   NOAA